sensor_id;sensor_type;location;lat;lon;timestamp;P1;durP1;ratioP1;P2;durP2;ratioP2
68432;SDS011;55412;51.350;17.056;2022-07-23T00:01:20;10.82;;;6.90;;
68432;SDS011;55412;51.350;17.056;2022-07-23T00:03:47;14.05;;;6.28;;
68432;SDS011;55412;51.350;17.056;2022-07-23T00:06:13;11.27;;;6.72;;
68432;SDS011;55412;51.350;17.056;2022-07-23T00:08:40;11.67;;;7.30;;
68432;SDS011;55412;51.350;17.056;2022-07-23T00:11:06;10.43;;;6.47;;
68432;SDS011;55412;51.350;17.056;2022-07-23T00:13:33;10.07;;;6.32;;
68432;SDS011;55412;51.350;17.056;2022-07-23T00:15:59;11.65;;;6.65;;
68432;SDS011;55412;51.350;17.056;2022-07-23T00:18:25;10.93;;;7.00;;
68432;SDS011;55412;51.350;17.056;2022-07-23T00:20:51;10.07;;;6.07;;
68432;SDS011;55412;51.350;17.056;2022-07-23T00:23:17;13.90;;;6.30;;
68432;SDS011;55412;51.350;17.056;2022-07-23T00:25:43;10.63;;;6.95;;
68432;SDS011;55412;51.350;17.056;2022-07-23T00:28:10;10.73;;;6.47;;
68432;SDS011;55412;51.350;17.056;2022-07-23T00:30:37;11.88;;;6.75;;
68432;SDS011;55412;51.350;17.056;2022-07-23T00:33:05;14.43;;;6.50;;
68432;SDS011;55412;51.350;17.056;2022-07-23T00:35:33;10.35;;;6.15;;
68432;SDS011;55412;51.350;17.056;2022-07-23T00:38:02;15.48;;;6.82;;
68432;SDS011;55412;51.350;17.056;2022-07-23T00:40:30;11.48;;;7.03;;
68432;SDS011;55412;51.350;17.056;2022-07-23T00:42:56;13.55;;;6.95;;
68432;SDS011;55412;51.350;17.056;2022-07-23T00:45:24;12.37;;;6.83;;
68432;SDS011;55412;51.350;17.056;2022-07-23T00:47:50;11.60;;;6.65;;
68432;SDS011;55412;51.350;17.056;2022-07-23T00:50:17;14.45;;;7.28;;
68432;SDS011;55412;51.350;17.056;2022-07-23T00:52:43;13.25;;;6.60;;
68432;SDS011;55412;51.350;17.056;2022-07-23T00:55:10;10.77;;;6.75;;
68432;SDS011;55412;51.350;17.056;2022-07-23T00:57:38;12.13;;;6.67;;
68432;SDS011;55412;51.350;17.056;2022-07-23T01:00:07;12.57;;;6.53;;
68432;SDS011;55412;51.350;17.056;2022-07-23T01:02:37;11.55;;;7.35;;
68432;SDS011;55412;51.350;17.056;2022-07-23T01:05:04;12.85;;;7.38;;
68432;SDS011;55412;51.350;17.056;2022-07-23T01:07:32;12.55;;;7.30;;
68432;SDS011;55412;51.350;17.056;2022-07-23T01:09:59;14.40;;;7.57;;
68432;SDS011;55412;51.350;17.056;2022-07-23T01:12:25;14.00;;;7.55;;
68432;SDS011;55412;51.350;17.056;2022-07-23T01:14:54;14.30;;;6.97;;
68432;SDS011;55412;51.350;17.056;2022-07-23T01:17:24;11.60;;;7.13;;
68432;SDS011;55412;51.350;17.056;2022-07-23T01:19:51;10.52;;;7.00;;
68432;SDS011;55412;51.350;17.056;2022-07-23T01:22:18;14.80;;;7.63;;
68432;SDS011;55412;51.350;17.056;2022-07-23T01:24:49;13.70;;;7.32;;
68432;SDS011;55412;51.350;17.056;2022-07-23T01:27:15;14.90;;;6.90;;
68432;SDS011;55412;51.350;17.056;2022-07-23T01:29:42;11.00;;;7.13;;
68432;SDS011;55412;51.350;17.056;2022-07-23T01:32:08;13.18;;;7.53;;
68432;SDS011;55412;51.350;17.056;2022-07-23T01:34:34;14.67;;;6.70;;
68432;SDS011;55412;51.350;17.056;2022-07-23T01:37:00;14.43;;;7.65;;
68432;SDS011;55412;51.350;17.056;2022-07-23T01:39:26;15.00;;;7.38;;
68432;SDS011;55412;51.350;17.056;2022-07-23T01:41:52;14.27;;;7.18;;
68432;SDS011;55412;51.350;17.056;2022-07-23T01:44:18;18.85;;;7.72;;
68432;SDS011;55412;51.350;17.056;2022-07-23T01:46:44;11.50;;;6.90;;
68432;SDS011;55412;51.350;17.056;2022-07-23T01:49:11;9.45;;;6.75;;
68432;SDS011;55412;51.350;17.056;2022-07-23T01:51:37;11.30;;;7.07;;
68432;SDS011;55412;51.350;17.056;2022-07-23T01:54:22;10.65;;;6.80;;
68432;SDS011;55412;51.350;17.056;2022-07-23T01:56:49;14.15;;;7.35;;
68432;SDS011;55412;51.350;17.056;2022-07-23T01:59:14;13.90;;;7.27;;
68432;SDS011;55412;51.350;17.056;2022-07-23T02:01:41;13.20;;;6.97;;
68432;SDS011;55412;51.350;17.056;2022-07-23T02:04:07;13.77;;;7.13;;
68432;SDS011;55412;51.350;17.056;2022-07-23T02:06:33;12.88;;;6.65;;
68432;SDS011;55412;51.350;17.056;2022-07-23T02:08:59;13.43;;;6.47;;
68432;SDS011;55412;51.350;17.056;2022-07-23T02:11:25;11.30;;;7.13;;
68432;SDS011;55412;51.350;17.056;2022-07-23T02:13:51;11.68;;;6.70;;
68432;SDS011;55412;51.350;17.056;2022-07-23T02:16:17;14.02;;;7.22;;
68432;SDS011;55412;51.350;17.056;2022-07-23T02:18:43;15.32;;;6.57;;
68432;SDS011;55412;51.350;17.056;2022-07-23T02:21:09;11.77;;;7.28;;
68432;SDS011;55412;51.350;17.056;2022-07-23T02:23:35;11.93;;;7.90;;
68432;SDS011;55412;51.350;17.056;2022-07-23T02:26:01;12.00;;;6.95;;
68432;SDS011;55412;51.350;17.056;2022-07-23T02:28:27;13.30;;;7.07;;
68432;SDS011;55412;51.350;17.056;2022-07-23T02:30:53;12.23;;;7.35;;
68432;SDS011;55412;51.350;17.056;2022-07-23T02:33:19;13.82;;;8.18;;
68432;SDS011;55412;51.350;17.056;2022-07-23T02:35:45;13.80;;;7.70;;
68432;SDS011;55412;51.350;17.056;2022-07-23T02:38:11;12.98;;;6.82;;
68432;SDS011;55412;51.350;17.056;2022-07-23T02:40:37;14.13;;;6.78;;
68432;SDS011;55412;51.350;17.056;2022-07-23T02:43:03;12.02;;;7.05;;
68432;SDS011;55412;51.350;17.056;2022-07-23T02:45:29;12.57;;;7.82;;
68432;SDS011;55412;51.350;17.056;2022-07-23T02:47:55;12.00;;;6.87;;
68432;SDS011;55412;51.350;17.056;2022-07-23T02:50:22;13.07;;;7.35;;
68432;SDS011;55412;51.350;17.056;2022-07-23T02:52:48;12.93;;;7.40;;
68432;SDS011;55412;51.350;17.056;2022-07-23T02:55:14;15.32;;;7.13;;
68432;SDS011;55412;51.350;17.056;2022-07-23T02:57:40;12.10;;;6.78;;
68432;SDS011;55412;51.350;17.056;2022-07-23T03:00:07;13.87;;;6.53;;
68432;SDS011;55412;51.350;17.056;2022-07-23T03:02:34;13.00;;;7.07;;
68432;SDS011;55412;51.350;17.056;2022-07-23T03:05:00;14.00;;;7.13;;
68432;SDS011;55412;51.350;17.056;2022-07-23T03:07:26;14.98;;;7.28;;
68432;SDS011;55412;51.350;17.056;2022-07-23T03:09:52;14.75;;;7.85;;
68432;SDS011;55412;51.350;17.056;2022-07-23T03:12:18;13.80;;;7.57;;
68432;SDS011;55412;51.350;17.056;2022-07-23T03:14:44;15.25;;;7.57;;
68432;SDS011;55412;51.350;17.056;2022-07-23T03:17:10;11.88;;;6.30;;
68432;SDS011;55412;51.350;17.056;2022-07-23T03:19:36;12.77;;;6.95;;
68432;SDS011;55412;51.350;17.056;2022-07-23T03:22:03;12.45;;;7.50;;
68432;SDS011;55412;51.350;17.056;2022-07-23T03:24:30;13.93;;;6.83;;
68432;SDS011;55412;51.350;17.056;2022-07-23T03:27:15;13.13;;;7.35;;
68432;SDS011;55412;51.350;17.056;2022-07-23T03:29:41;11.63;;;6.90;;
68432;SDS011;55412;51.350;17.056;2022-07-23T03:32:07;13.68;;;7.45;;
68432;SDS011;55412;51.350;17.056;2022-07-23T03:34:33;10.35;;;6.85;;
68432;SDS011;55412;51.350;17.056;2022-07-23T03:36:59;12.13;;;6.60;;
68432;SDS011;55412;51.350;17.056;2022-07-23T03:39:25;13.98;;;6.93;;
68432;SDS011;55412;51.350;17.056;2022-07-23T03:41:51;12.00;;;6.10;;
68432;SDS011;55412;51.350;17.056;2022-07-23T03:44:17;12.07;;;7.53;;
68432;SDS011;55412;51.350;17.056;2022-07-23T03:46:43;13.57;;;7.07;;
68432;SDS011;55412;51.350;17.056;2022-07-23T03:49:09;12.50;;;7.07;;
68432;SDS011;55412;51.350;17.056;2022-07-23T03:51:35;12.15;;;7.00;;
68432;SDS011;55412;51.350;17.056;2022-07-23T03:54:01;13.10;;;6.88;;
68432;SDS011;55412;51.350;17.056;2022-07-23T03:56:27;13.55;;;7.55;;
68432;SDS011;55412;51.350;17.056;2022-07-23T03:58:53;10.95;;;7.22;;
68432;SDS011;55412;51.350;17.056;2022-07-23T04:01:19;12.60;;;6.93;;
68432;SDS011;55412;51.350;17.056;2022-07-23T04:03:45;13.50;;;7.95;;
68432;SDS011;55412;51.350;17.056;2022-07-23T04:06:11;16.27;;;8.60;;
68432;SDS011;55412;51.350;17.056;2022-07-23T04:08:38;14.60;;;8.85;;
68432;SDS011;55412;51.350;17.056;2022-07-23T04:11:04;13.13;;;8.05;;
68432;SDS011;55412;51.350;17.056;2022-07-23T04:13:30;12.43;;;7.83;;
68432;SDS011;55412;51.350;17.056;2022-07-23T04:15:57;13.48;;;7.78;;
68432;SDS011;55412;51.350;17.056;2022-07-23T04:18:24;15.43;;;8.30;;
68432;SDS011;55412;51.350;17.056;2022-07-23T04:20:50;15.70;;;8.10;;
68432;SDS011;55412;51.350;17.056;2022-07-23T04:23:17;14.98;;;8.63;;
68432;SDS011;55412;51.350;17.056;2022-07-23T04:25:43;13.17;;;8.00;;
68432;SDS011;55412;51.350;17.056;2022-07-23T04:28:09;14.63;;;8.40;;
68432;SDS011;55412;51.350;17.056;2022-07-23T04:30:36;12.90;;;7.78;;
68432;SDS011;55412;51.350;17.056;2022-07-23T04:33:03;16.30;;;8.32;;
68432;SDS011;55412;51.350;17.056;2022-07-23T04:35:32;11.05;;;7.88;;
68432;SDS011;55412;51.350;17.056;2022-07-23T04:37:59;14.30;;;9.03;;
68432;SDS011;55412;51.350;17.056;2022-07-23T04:40:26;12.05;;;8.02;;
68432;SDS011;55412;51.350;17.056;2022-07-23T04:42:53;16.65;;;9.00;;
68432;SDS011;55412;51.350;17.056;2022-07-23T04:45:19;11.80;;;8.43;;
68432;SDS011;55412;51.350;17.056;2022-07-23T04:47:46;16.67;;;8.93;;
68432;SDS011;55412;51.350;17.056;2022-07-23T04:50:12;13.87;;;8.10;;
68432;SDS011;55412;51.350;17.056;2022-07-23T04:52:38;14.20;;;8.13;;
68432;SDS011;55412;51.350;17.056;2022-07-23T04:55:04;13.10;;;8.30;;
68432;SDS011;55412;51.350;17.056;2022-07-23T04:57:30;14.52;;;8.30;;
68432;SDS011;55412;51.350;17.056;2022-07-23T04:59:56;12.38;;;7.97;;
68432;SDS011;55412;51.350;17.056;2022-07-23T05:02:22;17.30;;;8.97;;
68432;SDS011;55412;51.350;17.056;2022-07-23T05:04:48;16.67;;;9.20;;
68432;SDS011;55412;51.350;17.056;2022-07-23T05:07:14;14.93;;;9.07;;
68432;SDS011;55412;51.350;17.056;2022-07-23T05:09:40;17.60;;;9.90;;
68432;SDS011;55412;51.350;17.056;2022-07-23T05:12:07;17.23;;;9.77;;
68432;SDS011;55412;51.350;17.056;2022-07-23T05:14:33;15.43;;;11.13;;
68432;SDS011;55412;51.350;17.056;2022-07-23T05:16:59;15.98;;;9.70;;
68432;SDS011;55412;51.350;17.056;2022-07-23T05:19:25;15.00;;;9.82;;
68432;SDS011;55412;51.350;17.056;2022-07-23T05:21:51;16.45;;;10.48;;
68432;SDS011;55412;51.350;17.056;2022-07-23T05:24:17;15.43;;;10.90;;
68432;SDS011;55412;51.350;17.056;2022-07-23T05:26:43;18.33;;;9.70;;
68432;SDS011;55412;51.350;17.056;2022-07-23T05:29:09;16.40;;;10.82;;
68432;SDS011;55412;51.350;17.056;2022-07-23T05:31:35;18.13;;;10.80;;
68432;SDS011;55412;51.350;17.056;2022-07-23T05:34:01;13.57;;;9.02;;
68432;SDS011;55412;51.350;17.056;2022-07-23T05:36:27;14.13;;;9.30;;
68432;SDS011;55412;51.350;17.056;2022-07-23T05:38:53;13.43;;;7.80;;
68432;SDS011;55412;51.350;17.056;2022-07-23T05:41:19;12.80;;;8.70;;
68432;SDS011;55412;51.350;17.056;2022-07-23T05:43:45;12.65;;;7.45;;
68432;SDS011;55412;51.350;17.056;2022-07-23T05:46:12;15.25;;;6.85;;
68432;SDS011;55412;51.350;17.056;2022-07-23T05:48:38;13.73;;;7.32;;
68432;SDS011;55412;51.350;17.056;2022-07-23T05:51:04;11.70;;;6.33;;
68432;SDS011;55412;51.350;17.056;2022-07-23T05:53:32;14.18;;;7.43;;
68432;SDS011;55412;51.350;17.056;2022-07-23T05:55:59;12.63;;;7.00;;
68432;SDS011;55412;51.350;17.056;2022-07-23T05:58:26;12.05;;;6.55;;
68432;SDS011;55412;51.350;17.056;2022-07-23T06:00:52;12.38;;;7.28;;
68432;SDS011;55412;51.350;17.056;2022-07-23T06:03:18;10.53;;;5.97;;
68432;SDS011;55412;51.350;17.056;2022-07-23T06:05:45;10.35;;;6.25;;
68432;SDS011;55412;51.350;17.056;2022-07-23T06:08:11;10.77;;;6.40;;
68432;SDS011;55412;51.350;17.056;2022-07-23T06:10:37;9.43;;;5.72;;
68432;SDS011;55412;51.350;17.056;2022-07-23T06:13:03;9.65;;;6.28;;
68432;SDS011;55412;51.350;17.056;2022-07-23T06:15:29;8.60;;;5.63;;
68432;SDS011;55412;51.350;17.056;2022-07-23T06:17:56;10.52;;;5.93;;
68432;SDS011;55412;51.350;17.056;2022-07-23T06:20:22;8.15;;;6.30;;
68432;SDS011;55412;51.350;17.056;2022-07-23T06:22:48;10.00;;;6.00;;
68432;SDS011;55412;51.350;17.056;2022-07-23T06:25:14;9.82;;;5.57;;
68432;SDS011;55412;51.350;17.056;2022-07-23T06:27:41;9.33;;;5.70;;
68432;SDS011;55412;51.350;17.056;2022-07-23T06:30:07;8.80;;;5.63;;
68432;SDS011;55412;51.350;17.056;2022-07-23T06:32:35;10.63;;;5.20;;
68432;SDS011;55412;51.350;17.056;2022-07-23T06:35:01;8.52;;;6.03;;
68432;SDS011;55412;51.350;17.056;2022-07-23T06:37:27;10.00;;;6.13;;
68432;SDS011;55412;51.350;17.056;2022-07-23T06:39:54;8.07;;;5.70;;
68432;SDS011;55412;51.350;17.056;2022-07-23T06:42:20;7.43;;;5.28;;
68432;SDS011;55412;51.350;17.056;2022-07-23T06:44:47;8.10;;;5.72;;
68432;SDS011;55412;51.350;17.056;2022-07-23T06:47:13;8.88;;;6.03;;
68432;SDS011;55412;51.350;17.056;2022-07-23T06:49:39;10.73;;;5.93;;
68432;SDS011;55412;51.350;17.056;2022-07-23T06:52:06;9.47;;;6.43;;
68432;SDS011;55412;51.350;17.056;2022-07-23T06:54:33;8.45;;;6.45;;
68432;SDS011;55412;51.350;17.056;2022-07-23T06:56:59;10.88;;;6.53;;
68432;SDS011;55412;51.350;17.056;2022-07-23T06:59:26;13.60;;;5.72;;
68432;SDS011;55412;51.350;17.056;2022-07-23T07:01:52;10.73;;;6.13;;
68432;SDS011;55412;51.350;17.056;2022-07-23T07:04:18;9.73;;;6.00;;
68432;SDS011;55412;51.350;17.056;2022-07-23T07:06:44;10.30;;;5.93;;
68432;SDS011;55412;51.350;17.056;2022-07-23T07:09:10;8.25;;;6.28;;
68432;SDS011;55412;51.350;17.056;2022-07-23T07:11:36;7.85;;;5.68;;
68432;SDS011;55412;51.350;17.056;2022-07-23T07:14:02;9.77;;;5.82;;
68432;SDS011;55412;51.350;17.056;2022-07-23T07:16:29;12.23;;;6.33;;
68432;SDS011;55412;51.350;17.056;2022-07-23T07:18:57;7.93;;;5.50;;
68432;SDS011;55412;51.350;17.056;2022-07-23T07:21:23;10.48;;;6.28;;
68432;SDS011;55412;51.350;17.056;2022-07-23T07:23:49;8.32;;;5.90;;
68432;SDS011;55412;51.350;17.056;2022-07-23T07:26:15;9.40;;;6.30;;
68432;SDS011;55412;51.350;17.056;2022-07-23T07:28:41;9.63;;;5.60;;
68432;SDS011;55412;51.350;17.056;2022-07-23T07:31:07;7.53;;;5.80;;
68432;SDS011;55412;51.350;17.056;2022-07-23T07:33:33;7.88;;;5.68;;
68432;SDS011;55412;51.350;17.056;2022-07-23T07:35:59;10.88;;;6.50;;
68432;SDS011;55412;51.350;17.056;2022-07-23T07:38:25;8.13;;;6.07;;
68432;SDS011;55412;51.350;17.056;2022-07-23T07:40:51;11.53;;;6.00;;
68432;SDS011;55412;51.350;17.056;2022-07-23T07:43:17;8.18;;;5.78;;
68432;SDS011;55412;51.350;17.056;2022-07-23T07:45:43;9.05;;;6.18;;
68432;SDS011;55412;51.350;17.056;2022-07-23T07:48:09;10.07;;;6.20;;
68432;SDS011;55412;51.350;17.056;2022-07-23T07:50:35;9.65;;;5.38;;
68432;SDS011;55412;51.350;17.056;2022-07-23T07:53:02;13.70;;;6.07;;
68432;SDS011;55412;51.350;17.056;2022-07-23T07:55:28;7.82;;;5.95;;
68432;SDS011;55412;51.350;17.056;2022-07-23T07:57:54;8.38;;;6.80;;
68432;SDS011;55412;51.350;17.056;2022-07-23T08:00:20;8.65;;;6.50;;
68432;SDS011;55412;51.350;17.056;2022-07-23T08:02:50;8.70;;;6.70;;
68432;SDS011;55412;51.350;17.056;2022-07-23T08:05:21;8.67;;;5.97;;
68432;SDS011;55412;51.350;17.056;2022-07-23T08:07:49;9.85;;;6.20;;
68432;SDS011;55412;51.350;17.056;2022-07-23T08:10:16;9.52;;;6.72;;
68432;SDS011;55412;51.350;17.056;2022-07-23T08:15:17;14.60;;;6.78;;
68432;SDS011;55412;51.350;17.056;2022-07-23T08:17:45;9.17;;;6.23;;
68432;SDS011;55412;51.350;17.056;2022-07-23T08:20:13;8.88;;;6.32;;
68432;SDS011;55412;51.350;17.056;2022-07-23T08:25:24;8.88;;;6.38;;
68432;SDS011;55412;51.350;17.056;2022-07-23T08:27:53;8.45;;;5.80;;
68432;SDS011;55412;51.350;17.056;2022-07-23T08:30:20;8.07;;;6.00;;
68432;SDS011;55412;51.350;17.056;2022-07-23T08:32:47;11.15;;;6.55;;
68432;SDS011;55412;51.350;17.056;2022-07-23T08:35:28;8.90;;;6.03;;
68432;SDS011;55412;51.350;17.056;2022-07-23T08:37:58;8.23;;;6.15;;
68432;SDS011;55412;51.350;17.056;2022-07-23T08:40:28;11.55;;;6.65;;
68432;SDS011;55412;51.350;17.056;2022-07-23T08:42:56;8.50;;;6.40;;
68432;SDS011;55412;51.350;17.056;2022-07-23T08:45:23;13.02;;;6.63;;
68432;SDS011;55412;51.350;17.056;2022-07-23T08:47:51;13.82;;;7.40;;
68432;SDS011;55412;51.350;17.056;2022-07-23T08:50:25;10.45;;;6.50;;
68432;SDS011;55412;51.350;17.056;2022-07-23T08:52:52;10.05;;;6.97;;
68432;SDS011;55412;51.350;17.056;2022-07-23T08:55:22;9.43;;;6.40;;
68432;SDS011;55412;51.350;17.056;2022-07-23T08:57:49;8.55;;;6.10;;
68432;SDS011;55412;51.350;17.056;2022-07-23T09:00:18;10.50;;;6.15;;
68432;SDS011;55412;51.350;17.056;2022-07-23T09:02:47;11.75;;;6.88;;
68432;SDS011;55412;51.350;17.056;2022-07-23T09:05:15;11.65;;;6.78;;
68432;SDS011;55412;51.350;17.056;2022-07-23T09:10:48;9.93;;;6.22;;
68432;SDS011;55412;51.350;17.056;2022-07-23T09:16:01;9.85;;;6.28;;
68432;SDS011;55412;51.350;17.056;2022-07-23T09:18:58;9.23;;;6.10;;
68432;SDS011;55412;51.350;17.056;2022-07-23T09:21:27;10.40;;;6.17;;
68432;SDS011;55412;51.350;17.056;2022-07-23T09:24:06;13.32;;;6.50;;
68432;SDS011;55412;51.350;17.056;2022-07-23T09:29:12;8.75;;;6.43;;
68432;SDS011;55412;51.350;17.056;2022-07-23T09:31:53;9.65;;;6.20;;
68432;SDS011;55412;51.350;17.056;2022-07-23T09:34:33;13.03;;;6.53;;
68432;SDS011;55412;51.350;17.056;2022-07-23T09:37:14;15.00;;;6.20;;
68432;SDS011;55412;51.350;17.056;2022-07-23T09:39:43;10.77;;;6.43;;
68432;SDS011;55412;51.350;17.056;2022-07-23T09:42:17;11.93;;;6.40;;
68432;SDS011;55412;51.350;17.056;2022-07-23T09:44:47;12.32;;;6.68;;
68432;SDS011;55412;51.350;17.056;2022-07-23T09:47:15;11.03;;;6.00;;
68432;SDS011;55412;51.350;17.056;2022-07-23T09:50:00;24.45;;;8.38;;
68432;SDS011;55412;51.350;17.056;2022-07-23T09:52:35;15.45;;;7.07;;
68432;SDS011;55412;51.350;17.056;2022-07-23T09:55:08;10.38;;;7.15;;
68432;SDS011;55412;51.350;17.056;2022-07-23T09:57:34;13.05;;;7.63;;
68432;SDS011;55412;51.350;17.056;2022-07-23T10:00:02;12.83;;;8.07;;
68432;SDS011;55412;51.350;17.056;2022-07-23T10:02:32;15.80;;;8.20;;
68432;SDS011;55412;51.350;17.056;2022-07-23T10:04:59;14.90;;;8.75;;
68432;SDS011;55412;51.350;17.056;2022-07-23T10:07:27;13.05;;;7.75;;
68432;SDS011;55412;51.350;17.056;2022-07-23T10:09:59;12.52;;;8.00;;
68432;SDS011;55412;51.350;17.056;2022-07-23T10:12:26;14.43;;;7.10;;
68432;SDS011;55412;51.350;17.056;2022-07-23T10:14:52;12.30;;;8.15;;
68432;SDS011;55412;51.350;17.056;2022-07-23T10:17:18;14.10;;;8.43;;
68432;SDS011;55412;51.350;17.056;2022-07-23T10:19:44;11.27;;;7.53;;
68432;SDS011;55412;51.350;17.056;2022-07-23T10:22:15;15.25;;;8.13;;
68432;SDS011;55412;51.350;17.056;2022-07-23T10:31:09;11.60;;;7.78;;
68432;SDS011;55412;51.350;17.056;2022-07-23T10:39:33;10.60;;;7.00;;
68432;SDS011;55412;51.350;17.056;2022-07-23T10:42:12;12.75;;;6.30;;
68432;SDS011;55412;51.350;17.056;2022-07-23T10:44:44;16.30;;;7.50;;
68432;SDS011;55412;51.350;17.056;2022-07-23T10:47:12;10.57;;;6.53;;
68432;SDS011;55412;51.350;17.056;2022-07-23T10:58:00;11.00;;;6.30;;
68432;SDS011;55412;51.350;17.056;2022-07-23T11:00:28;11.40;;;7.00;;
68432;SDS011;55412;51.350;17.056;2022-07-23T11:02:57;11.02;;;6.20;;
68432;SDS011;55412;51.350;17.056;2022-07-23T11:05:27;11.30;;;6.77;;
68432;SDS011;55412;51.350;17.056;2022-07-23T11:08:11;11.60;;;6.50;;
68432;SDS011;55412;51.350;17.056;2022-07-23T11:13:30;10.25;;;6.18;;
68432;SDS011;55412;51.350;17.056;2022-07-23T11:21:53;11.05;;;6.13;;
68432;SDS011;55412;51.350;17.056;2022-07-23T11:23:58;11.93;;;6.43;;
68432;SDS011;55412;51.350;17.056;2022-07-23T11:32:02;10.63;;;5.87;;
68432;SDS011;55412;51.350;17.056;2022-07-23T11:34:32;10.57;;;6.45;;
68432;SDS011;55412;51.350;17.056;2022-07-23T11:40:00;8.85;;;5.68;;
68432;SDS011;55412;51.350;17.056;2022-07-23T11:42:30;9.43;;;5.57;;
68432;SDS011;55412;51.350;17.056;2022-07-23T11:44:57;9.53;;;5.80;;
68432;SDS011;55412;51.350;17.056;2022-07-23T11:47:24;8.63;;;6.22;;
68432;SDS011;55412;51.350;17.056;2022-07-23T11:49:55;10.73;;;6.13;;
68432;SDS011;55412;51.350;17.056;2022-07-23T11:52:26;12.05;;;5.85;;
68432;SDS011;55412;51.350;17.056;2022-07-23T11:54:58;8.15;;;5.45;;
68432;SDS011;55412;51.350;17.056;2022-07-23T11:57:27;10.47;;;5.70;;
68432;SDS011;55412;51.350;17.056;2022-07-23T12:00:17;8.18;;;5.70;;
68432;SDS011;55412;51.350;17.056;2022-07-23T12:02:53;8.40;;;5.22;;
68432;SDS011;55412;51.350;17.056;2022-07-23T12:05:32;9.25;;;6.68;;
68432;SDS011;55412;51.350;17.056;2022-07-23T12:08:02;9.40;;;6.57;;
68432;SDS011;55412;51.350;17.056;2022-07-23T12:10:38;9.40;;;5.80;;
68432;SDS011;55412;51.350;17.056;2022-07-23T12:13:08;11.50;;;6.63;;
68432;SDS011;55412;51.350;17.056;2022-07-23T12:15:39;9.73;;;5.95;;
68432;SDS011;55412;51.350;17.056;2022-07-23T12:18:09;11.73;;;6.35;;
68432;SDS011;55412;51.350;17.056;2022-07-23T12:20:45;10.85;;;5.88;;
68432;SDS011;55412;51.350;17.056;2022-07-23T12:23:14;9.13;;;5.83;;
68432;SDS011;55412;51.350;17.056;2022-07-23T12:25:44;11.77;;;7.32;;
68432;SDS011;55412;51.350;17.056;2022-07-23T12:28:14;20.02;;;6.85;;
68432;SDS011;55412;51.350;17.056;2022-07-23T12:30:43;9.90;;;6.38;;
68432;SDS011;55412;51.350;17.056;2022-07-23T12:33:24;41.72;;;6.90;;
68432;SDS011;55412;51.350;17.056;2022-07-23T12:35:57;13.03;;;6.73;;
68432;SDS011;55412;51.350;17.056;2022-07-23T12:38:38;11.93;;;7.32;;
68432;SDS011;55412;51.350;17.056;2022-07-23T12:41:12;11.55;;;6.55;;
68432;SDS011;55412;51.350;17.056;2022-07-23T12:43:39;10.48;;;7.13;;
68432;SDS011;55412;51.350;17.056;2022-07-23T12:46:11;10.75;;;6.72;;
68432;SDS011;55412;51.350;17.056;2022-07-23T12:48:49;10.03;;;6.60;;
68432;SDS011;55412;51.350;17.056;2022-07-23T12:51:20;11.38;;;7.22;;
68432;SDS011;55412;51.350;17.056;2022-07-23T12:56:43;10.40;;;6.70;;
68432;SDS011;55412;51.350;17.056;2022-07-23T12:59:11;11.45;;;7.45;;
68432;SDS011;55412;51.350;17.056;2022-07-23T13:01:44;8.97;;;6.80;;
68432;SDS011;55412;51.350;17.056;2022-07-23T13:04:20;15.15;;;7.88;;
68432;SDS011;55412;51.350;17.056;2022-07-23T13:06:49;10.50;;;7.53;;
68432;SDS011;55412;51.350;17.056;2022-07-23T13:09:21;9.55;;;6.55;;
68432;SDS011;55412;51.350;17.056;2022-07-23T13:11:51;12.15;;;7.95;;
68432;SDS011;55412;51.350;17.056;2022-07-23T13:14:20;11.07;;;7.20;;
68432;SDS011;55412;51.350;17.056;2022-07-23T13:16:47;12.15;;;7.40;;
68432;SDS011;55412;51.350;17.056;2022-07-23T13:19:15;10.77;;;7.28;;
68432;SDS011;55412;51.350;17.056;2022-07-23T13:21:42;14.00;;;8.02;;
68432;SDS011;55412;51.350;17.056;2022-07-23T13:24:09;9.75;;;7.10;;
68432;SDS011;55412;51.350;17.056;2022-07-23T13:26:37;12.13;;;7.17;;
68432;SDS011;55412;51.350;17.056;2022-07-23T13:29:05;11.43;;;7.78;;
68432;SDS011;55412;51.350;17.056;2022-07-23T13:31:32;15.23;;;8.40;;
68432;SDS011;55412;51.350;17.056;2022-07-23T13:33:58;12.65;;;6.95;;
68432;SDS011;55412;51.350;17.056;2022-07-23T13:36:24;10.38;;;7.55;;
68432;SDS011;55412;51.350;17.056;2022-07-23T13:38:50;12.53;;;8.23;;
68432;SDS011;55412;51.350;17.056;2022-07-23T13:41:17;10.02;;;7.55;;
68432;SDS011;55412;51.350;17.056;2022-07-23T13:43:43;11.48;;;8.00;;
68432;SDS011;55412;51.350;17.056;2022-07-23T13:46:10;12.93;;;8.02;;
68432;SDS011;55412;51.350;17.056;2022-07-23T13:48:36;11.25;;;8.00;;
68432;SDS011;55412;51.350;17.056;2022-07-23T13:51:02;9.97;;;7.67;;
68432;SDS011;55412;51.350;17.056;2022-07-23T13:53:28;10.25;;;7.60;;
68432;SDS011;55412;51.350;17.056;2022-07-23T13:55:54;12.93;;;8.48;;
68432;SDS011;55412;51.350;17.056;2022-07-23T13:58:20;12.18;;;8.07;;
68432;SDS011;55412;51.350;17.056;2022-07-23T14:00:50;14.88;;;9.18;;
68432;SDS011;55412;51.350;17.056;2022-07-23T14:03:18;13.40;;;8.10;;
68432;SDS011;55412;51.350;17.056;2022-07-23T14:05:48;10.77;;;8.25;;
68432;SDS011;55412;51.350;17.056;2022-07-23T14:08:15;10.68;;;7.50;;
68432;SDS011;55412;51.350;17.056;2022-07-23T14:10:41;13.13;;;7.65;;
68432;SDS011;55412;51.350;17.056;2022-07-23T14:13:07;12.38;;;7.85;;
68432;SDS011;55412;51.350;17.056;2022-07-23T14:15:33;14.03;;;7.67;;
68432;SDS011;55412;51.350;17.056;2022-07-23T14:17:59;12.82;;;8.15;;
68432;SDS011;55412;51.350;17.056;2022-07-23T14:20:25;12.93;;;7.78;;
68432;SDS011;55412;51.350;17.056;2022-07-23T14:22:52;12.43;;;8.13;;
68432;SDS011;55412;51.350;17.056;2022-07-23T14:25:20;11.10;;;7.85;;
68432;SDS011;55412;51.350;17.056;2022-07-23T14:27:46;14.97;;;9.30;;
68432;SDS011;55412;51.350;17.056;2022-07-23T14:30:13;12.40;;;9.05;;
68432;SDS011;55412;51.350;17.056;2022-07-23T14:32:40;12.50;;;8.15;;
68432;SDS011;55412;51.350;17.056;2022-07-23T14:35:06;11.90;;;8.20;;
68432;SDS011;55412;51.350;17.056;2022-07-23T14:37:33;12.70;;;9.07;;
68432;SDS011;55412;51.350;17.056;2022-07-23T14:39:59;12.23;;;8.70;;
68432;SDS011;55412;51.350;17.056;2022-07-23T14:42:26;14.98;;;9.02;;
68432;SDS011;55412;51.350;17.056;2022-07-23T14:44:52;13.57;;;8.63;;
68432;SDS011;55412;51.350;17.056;2022-07-23T14:47:18;12.68;;;9.02;;
68432;SDS011;55412;51.350;17.056;2022-07-23T14:49:44;16.30;;;9.48;;
68432;SDS011;55412;51.350;17.056;2022-07-23T14:52:10;10.20;;;8.33;;
68432;SDS011;55412;51.350;17.056;2022-07-23T14:54:36;15.00;;;8.35;;
68432;SDS011;55412;51.350;17.056;2022-07-23T14:57:02;12.35;;;8.40;;
68432;SDS011;55412;51.350;17.056;2022-07-23T14:59:29;13.10;;;8.10;;
68432;SDS011;55412;51.350;17.056;2022-07-23T15:01:56;12.93;;;7.90;;
68432;SDS011;55412;51.350;17.056;2022-07-23T15:04:23;11.03;;;8.40;;
68432;SDS011;55412;51.350;17.056;2022-07-23T15:06:50;9.82;;;8.00;;
68432;SDS011;55412;51.350;17.056;2022-07-23T15:09:17;11.90;;;8.15;;
68432;SDS011;55412;51.350;17.056;2022-07-23T15:11:43;11.45;;;9.05;;
68432;SDS011;55412;51.350;17.056;2022-07-23T15:14:09;13.38;;;8.15;;
68432;SDS011;55412;51.350;17.056;2022-07-23T15:16:35;12.27;;;8.27;;
68432;SDS011;55412;51.350;17.056;2022-07-23T15:19:02;11.10;;;8.93;;
68432;SDS011;55412;51.350;17.056;2022-07-23T15:21:30;11.95;;;8.93;;